Time;durP1;ratioP1;P1;durP2;ratioP2;P2;SDS_P1;SDS_P2;PMS_P1;PMS_P2;Temp;Humidity;BMP_temperature;BMP_pressure;BME280_temperature;BME280_humidity;BME280_pressure;Samples;Min_cycle;Max_cycle;Signal;HPM_P1;HPM_P2
2022/06/28 00:01:14;;;;;;;6.88;5.28;;;;;;;;;;4984073;28;20034;-63
2022/06/28 00:03:41;;;;;;;6.95;4.45;;;;;;;;;;4983783;28;20038;-63
2022/06/28 00:06:06;;;;;;;6.47;4.43;;;;;;;;;;4985189;28;20393;-63
2022/06/28 00:08:31;;;;;;;4.80;3.97;;;;;;;;;;4987665;28;20064;-63
2022/06/28 00:10:57;;;;;;;5.18;4.68;;;;;;;;;;4985056;28;20029;-63
2022/06/28 00:13:22;;;;;;;10.65;4.45;;;;;;;;;;4965608;28;20515;-63
2022/06/28 00:16:06;;;;;;;4.18;3.88;;;;;;;;;;4987095;28;20526;-63
2022/06/28 00:18:41;;;;;;;5.60;5.07;;;;;;;;;;4987402;28;20038;-62
2022/06/28 00:21:07;;;;;;;8.50;4.70;;;;;;;;;;4988000;28;20040;-63
2022/06/28 00:23:33;;;;;;;5.78;4.32;;;;;;;;;;4988470;28;20029;-63
2022/06/28 00:25:58;;;;;;;5.40;4.60;;;;;;;;;;4988675;28;20468;-63
2022/06/28 00:28:24;;;;;;;7.75;4.63;;;;;;;;;;4991479;28;20034;-63
2022/06/28 00:30:49;;;;;;;5.13;4.63;;;;;;;;;;4988118;28;20423;-63
2022/06/28 00:33:14;;;;;;;5.32;4.30;;;;;;;;;;4988193;28;20035;-63
2022/06/28 00:35:39;;;;;;;6.10;4.68;;;;;;;;;;4968284;28;20034;-63
2022/06/28 00:38:05;;;;;;;7.70;5.00;;;;;;;;;;4971014;28;20030;-62
2022/06/28 00:40:38;;;;;;;5.22;4.70;;;;;;;;;;4985903;28;20026;-63
2022/06/28 00:43:03;;;;;;;5.00;4.53;;;;;;;;;;4984817;28;20134;-62
2022/06/28 00:45:29;;;;;;;5.28;4.05;;;;;;;;;;4983867;28;20172;-63
2022/06/28 00:47:54;;;;;;;5.07;4.78;;;;;;;;;;4985113;28;20362;-62
2022/06/28 00:50:21;;;;;;;5.38;4.95;;;;;;;;;;4984640;28;20035;-63
2022/06/28 00:53:03;;;;;;;5.40;4.60;;;;;;;;;;4985960;28;20025;-63
2022/06/28 00:55:29;;;;;;;6.10;4.72;;;;;;;;;;4989209;28;20096;-62
2022/06/28 00:57:54;;;;;;;5.60;4.40;;;;;;;;;;4986458;28;20102;-62
2022/06/28 01:00:19;;;;;;;5.60;4.30;;;;;;;;;;4983245;28;20092;-62
2022/06/28 01:02:45;;;;;;;5.47;4.80;;;;;;;;;;4984549;28;20779;-62
2022/06/28 01:05:10;;;;;;;5.75;4.00;;;;;;;;;;4985609;28;20040;-62
2022/06/28 01:07:35;;;;;;;6.18;4.40;;;;;;;;;;4985873;28;20148;-62
2022/06/28 01:10:00;;;;;;;5.25;4.10;;;;;;;;;;4985447;28;20362;-63
2022/06/28 01:12:26;;;;;;;4.22;3.83;;;;;;;;;;4983885;28;20034;-62
2022/06/28 01:14:51;;;;;;;6.90;4.78;;;;;;;;;;4986297;28;20033;-63
2022/06/28 01:17:16;;;;;;;4.72;4.30;;;;;;;;;;4985762;28;20069;-63
2022/06/28 01:19:42;;;;;;;4.88;4.35;;;;;;;;;;4983187;28;20030;-63
2022/06/28 01:22:09;;;;;;;4.80;4.40;;;;;;;;;;4985566;28;20472;-63
2022/06/28 01:24:34;;;;;;;4.28;3.95;;;;;;;;;;4967094;28;20273;-64
2022/06/28 01:27:00;;;;;;;4.28;3.88;;;;;;;;;;4984125;28;20101;-63
2022/06/28 01:29:26;;;;;;;4.53;4.13;;;;;;;;;;4986858;28;20085;-63
2022/06/28 01:31:51;;;;;;;5.07;4.57;;;;;;;;;;4988224;28;20400;-63
2022/06/28 01:34:17;;;;;;;3.78;3.53;;;;;;;;;;4988676;28;20038;-63
2022/06/28 01:36:42;;;;;;;3.50;3.30;;;;;;;;;;4988069;28;20493;-62
2022/06/28 01:39:09;;;;;;;3.67;3.47;;;;;;;;;;4987904;28;20030;-63
2022/06/28 01:41:34;;;;;;;4.05;3.15;;;;;;;;;;4969368;28;20118;-63
2022/06/28 01:44:03;;;;;;;4.82;3.67;;;;;;;;;;4987522;28;20033;-63
2022/06/28 01:46:29;;;;;;;3.22;3.03;;;;;;;;;;4987302;28;20030;-63
2022/06/28 01:48:55;;;;;;;5.10;3.35;;;;;;;;;;4989100;28;20045;-63
2022/06/28 01:51:20;;;;;;;5.15;3.28;;;;;;;;;;4987624;28;20040;-63
2022/06/28 01:53:46;;;;;;;4.07;3.22;;;;;;;;;;4964779;28;20105;-63
2022/06/28 01:56:11;;;;;;;2.92;2.72;;;;;;;;;;4989555;28;20074;-62
2022/06/28 01:58:37;;;;;;;5.15;4.35;;;;;;;;;;4987077;28;20052;-63
2022/06/28 02:01:03;;;;;;;2.67;2.47;;;;;;;;;;4985359;28;20030;-63
2022/06/28 02:03:28;;;;;;;2.80;2.60;;;;;;;;;;4987657;28;20468;-63
2022/06/28 02:05:53;;;;;;;3.05;2.85;;;;;;;;;;4986826;28;20038;-62
2022/06/28 02:08:18;;;;;;;2.85;2.40;;;;;;;;;;4988819;28;20145;-63
2022/06/28 02:10:44;;;;;;;3.20;2.90;;;;;;;;;;4987265;28;20026;-62
2022/06/28 02:13:09;;;;;;;4.57;2.10;;;;;;;;;;4989205;28;20026;-63
2022/06/28 02:15:34;;;;;;;2.30;2.10;;;;;;;;;;4988592;28;20551;-63
2022/06/28 02:18:00;;;;;;;2.60;2.40;;;;;;;;;;4987106;28;20034;-62
2022/06/28 02:20:25;;;;;;;3.50;2.33;;;;;;;;;;4986205;28;20026;-63
2022/06/28 02:22:51;;;;;;;3.10;2.35;;;;;;;;;;4985407;28;20085;-65
2022/06/28 02:25:17;;;;;;;2.25;1.95;;;;;;;;;;4988309;28;20400;-62
2022/06/28 02:27:43;;;;;;;4.57;2.72;;;;;;;;;;4989928;28;20030;-63
2022/06/28 02:30:09;;;;;;;8.88;2.72;;;;;;;;;;4986387;28;20041;-62
2022/06/28 02:32:34;;;;;;;4.35;2.88;;;;;;;;;;4987151;28;20034;-61
2022/06/28 02:40:27;;;;;;;3.28;3.08;;;;;;;;;;4985551;28;20454;-63
2022/06/28 02:42:53;;;;;;;3.83;2.63;;;;;;;;;;4986818;28;20039;-61
2022/06/28 02:45:19;;;;;;;2.88;2.67;;;;;;;;;;4988231;28;20065;-61
2022/06/28 02:47:45;;;;;;;3.13;2.92;;;;;;;;;;4985723;28;20049;-62
2022/06/28 02:50:10;;;;;;;4.70;3.90;;;;;;;;;;4984507;28;20025;-60
2022/06/28 02:52:35;;;;;;;4.63;3.17;;;;;;;;;;4986698;28;20084;-59
2022/06/28 02:55:01;;;;;;;2.65;2.45;;;;;;;;;;4987605;28;20395;-61
2022/06/28 02:57:26;;;;;;;3.60;2.78;;;;;;;;;;4986371;28;20022;-61
2022/06/28 02:59:51;;;;;;;4.18;2.85;;;;;;;;;;4984725;28;20084;-62
2022/06/28 03:02:16;;;;;;;3.15;2.58;;;;;;;;;;4985859;28;20352;-62
2022/06/28 03:04:42;;;;;;;3.38;2.33;;;;;;;;;;4987988;28;20068;-62
2022/06/28 03:07:07;;;;;;;3.13;2.78;;;;;;;;;;4984886;28;20061;-67
2022/06/28 03:09:32;;;;;;;3.03;2.17;;;;;;;;;;4985475;28;20540;-62
2022/06/28 03:11:57;;;;;;;2.63;2.42;;;;;;;;;;4985653;28;20375;-64
2022/06/28 03:14:22;;;;;;;4.03;2.85;;;;;;;;;;4984342;28;20117;-64
2022/06/28 03:16:48;;;;;;;3.53;3.22;;;;;;;;;;4986483;28;20161;-64
2022/06/28 03:19:13;;;;;;;3.75;3.38;;;;;;;;;;4969607;28;20160;-63
2022/06/28 03:21:38;;;;;;;3.30;3.10;;;;;;;;;;4986153;28;20532;-63
2022/06/28 03:24:03;;;;;;;3.28;3.13;;;;;;;;;;4984541;28;20030;-63
2022/06/28 03:26:29;;;;;;;3.80;3.50;;;;;;;;;;4984791;28;20034;-63
2022/06/28 03:28:54;;;;;;;3.03;2.83;;;;;;;;;;4986780;28;20114;-62
2022/06/28 03:31:19;;;;;;;3.53;3.25;;;;;;;;;;4985681;28;20408;-62
2022/06/28 03:33:44;;;;;;;3.95;3.30;;;;;;;;;;4985611;28;20414;-62
2022/06/28 03:36:10;;;;;;;3.72;3.42;;;;;;;;;;4986326;28;20046;-62
2022/06/28 03:38:35;;;;;;;3.22;2.80;;;;;;;;;;4986646;28;20018;-62
2022/06/28 03:41:00;;;;;;;3.30;3.00;;;;;;;;;;4986576;28;20037;-62
2022/06/28 03:43:25;;;;;;;3.22;3.03;;;;;;;;;;4984203;28;20026;-63
2022/06/28 03:45:51;;;;;;;3.28;2.92;;;;;;;;;;4986503;28;20634;-62
2022/06/28 03:48:16;;;;;;;2.50;2.40;;;;;;;;;;4987127;28;20530;-63
2022/06/28 03:50:42;;;;;;;3.20;3.00;;;;;;;;;;4986945;28;20667;-63
2022/06/28 03:53:07;;;;;;;3.90;3.25;;;;;;;;;;4983492;28;20074;-62
2022/06/28 03:55:32;;;;;;;3.42;3.05;;;;;;;;;;4985032;28;20065;-63
2022/06/28 03:57:58;;;;;;;3.05;2.70;;;;;;;;;;4987563;28;20416;-62
2022/06/28 04:00:23;;;;;;;3.55;2.88;;;;;;;;;;4985652;28;20025;-63
2022/06/28 04:02:48;;;;;;;3.85;2.60;;;;;;;;;;4984796;28;20030;-62
2022/06/28 04:05:13;;;;;;;3.00;2.90;;;;;;;;;;4984670;28;20034;-63
2022/06/28 04:07:39;;;;;;;3.33;3.13;;;;;;;;;;4986156;28;20448;-63
2022/06/28 04:10:04;;;;;;;3.30;3.10;;;;;;;;;;4987106;28;20535;-62
2022/06/28 04:12:29;;;;;;;4.03;2.80;;;;;;;;;;4985285;28;20049;-62
2022/06/28 04:14:55;;;;;;;3.30;3.03;;;;;;;;;;4986770;28;20140;-63
2022/06/28 04:17:20;;;;;;;2.78;2.58;;;;;;;;;;4968852;28;20519;-63
2022/06/28 04:19:45;;;;;;;3.60;3.30;;;;;;;;;;4986387;28;20073;-63
2022/06/28 04:22:11;;;;;;;2.47;2.38;;;;;;;;;;4983482;28;20441;-63
2022/06/28 04:24:36;;;;;;;3.42;3.22;;;;;;;;;;4985766;28;20041;-62
2022/06/28 04:27:01;;;;;;;2.97;2.78;;;;;;;;;;4987706;28;20073;-63
2022/06/28 04:29:27;;;;;;;2.22;2.13;;;;;;;;;;4970096;28;20034;-62
2022/06/28 04:31:52;;;;;;;2.53;2.38;;;;;;;;;;4966928;28;20026;-62
2022/06/28 04:34:17;;;;;;;2.33;2.13;;;;;;;;;;4985253;28;20385;-62
2022/06/28 04:36:43;;;;;;;2.63;2.40;;;;;;;;;;4988509;28;20391;-66
2022/06/28 04:39:08;;;;;;;1.90;1.80;;;;;;;;;;4986102;28;20088;-61
2022/06/28 04:41:33;;;;;;;3.00;2.60;;;;;;;;;;4975234;28;20043;-61
2022/06/28 04:43:59;;;;;;;2.20;2.10;;;;;;;;;;4963915;28;20424;-61
2022/06/28 04:46:24;;;;;;;2.65;2.55;;;;;;;;;;4961686;28;20030;-60
2022/06/28 04:48:49;;;;;;;2.80;2.60;;;;;;;;;;4961101;28;20358;-60
2022/06/28 04:51:15;;;;;;;2.40;2.25;;;;;;;;;;4960726;28;20410;-61
2022/06/28 04:53:41;;;;;;;2.38;2.20;;;;;;;;;;4961727;28;20031;-61
2022/06/28 04:56:07;;;;;;;2.30;2.10;;;;;;;;;;4946206;28;20105;-60
2022/06/28 04:58:32;;;;;;;2.72;2.15;;;;;;;;;;4962138;28;20030;-60
2022/06/28 05:00:57;;;;;;;2.95;2.55;;;;;;;;;;4960797;28;20109;-60
2022/06/28 05:03:23;;;;;;;2.03;1.92;;;;;;;;;;4961894;28;20030;-60
2022/06/28 05:05:48;;;;;;;2.42;2.20;;;;;;;;;;4968016;28;20421;-60
2022/06/28 05:08:13;;;;;;;2.80;2.00;;;;;;;;;;4965479;28;20065;-59
2022/06/28 05:10:39;;;;;;;2.65;2.45;;;;;;;;;;4964551;28;20465;-63
2022/06/28 05:13:04;;;;;;;2.28;1.98;;;;;;;;;;4965305;28;20142;-61
2022/06/28 05:15:29;;;;;;;2.20;2.00;;;;;;;;;;4966029;28;20462;-64
2022/06/28 05:17:54;;;;;;;2.95;2.40;;;;;;;;;;4965732;28;20101;-64
2022/06/28 05:20:20;;;;;;;2.53;2.33;;;;;;;;;;4964865;28;20359;-65
2022/06/28 05:22:45;;;;;;;2.47;2.08;;;;;;;;;;4965164;28;20466;-64
2022/06/28 05:25:10;;;;;;;3.00;2.58;;;;;;;;;;4967197;28;20089;-64
2022/06/28 05:27:35;;;;;;;4.07;2.78;;;;;;;;;;4964678;28;20033;-64
2022/06/28 05:30:01;;;;;;;2.03;1.92;;;;;;;;;;4964739;28;20039;-64
2022/06/28 05:32:26;;;;;;;2.28;2.08;;;;;;;;;;4964618;28;20027;-64
2022/06/28 05:34:51;;;;;;;2.25;2.10;;;;;;;;;;4966723;28;20045;-64
2022/06/28 05:37:17;;;;;;;2.33;2.13;;;;;;;;;;4964201;28;20070;-65
2022/06/28 05:39:42;;;;;;;2.33;2.22;;;;;;;;;;4964372;28;20062;-63
2022/06/28 05:42:08;;;;;;;2.53;2.42;;;;;;;;;;4964001;28;20050;-64
2022/06/28 05:44:33;;;;;;;2.40;2.20;;;;;;;;;;4964586;28;20190;-64
2022/06/28 05:46:58;;;;;;;2.58;1.98;;;;;;;;;;4964352;28;20034;-63
2022/06/28 05:49:24;;;;;;;4.18;2.85;;;;;;;;;;4964848;28;20133;-62
2022/06/28 05:51:49;;;;;;;2.50;2.30;;;;;;;;;;4963457;28;20031;-61
2022/06/28 05:54:14;;;;;;;3.58;2.97;;;;;;;;;;4964211;28;20632;-61
2022/06/28 05:56:39;;;;;;;3.38;2.05;;;;;;;;;;4963946;28;20376;-60
2022/06/28 05:59:05;;;;;;;1.85;1.70;;;;;;;;;;4965322;28;20042;-61
2022/06/28 06:01:30;;;;;;;2.22;2.03;;;;;;;;;;4963339;28;20031;-61
2022/06/28 06:03:57;;;;;;;3.80;2.03;;;;;;;;;;4963116;28;20430;-61
2022/06/28 06:06:24;;;;;;;2.35;2.25;;;;;;;;;;4964172;28;20030;-61
2022/06/28 06:08:50;;;;;;;2.50;1.92;;;;;;;;;;4964287;28;20058;-61
2022/06/28 06:11:16;;;;;;;2.05;1.95;;;;;;;;;;4964273;28;20427;-61
2022/06/28 06:13:41;;;;;;;2.25;1.95;;;;;;;;;;4962980;28;20030;-61
2022/06/28 06:16:06;;;;;;;1.92;1.70;;;;;;;;;;4963000;28;20041;-61
2022/06/28 06:18:31;;;;;;;2.05;1.88;;;;;;;;;;4963131;28;20035;-61
2022/06/28 06:20:57;;;;;;;2.92;2.50;;;;;;;;;;4963340;28;20085;-61
2022/06/28 06:23:22;;;;;;;1.95;1.85;;;;;;;;;;4962854;28;20357;-61
2022/06/28 06:25:47;;;;;;;3.33;2.85;;;;;;;;;;4963744;28;20451;-61
2022/06/28 06:28:12;;;;;;;1.75;1.65;;;;;;;;;;4966503;28;20393;-61
2022/06/28 06:30:39;;;;;;;3.20;2.88;;;;;;;;;;4964250;28;20458;-61
2022/06/28 06:33:04;;;;;;;3.33;1.80;;;;;;;;;;4977542;28;20026;-61
2022/06/28 06:35:29;;;;;;;2.13;2.03;;;;;;;;;;4962409;28;20117;-61
2022/06/28 06:38:00;;;;;;;2.25;1.90;;;;;;;;;;4965790;28;20572;-61
2022/06/28 06:40:26;;;;;;;1.92;1.83;;;;;;;;;;4964126;28;20038;-62
2022/06/28 06:42:51;;;;;;;2.05;1.90;;;;;;;;;;4962869;28;20034;-63
2022/06/28 06:45:16;;;;;;;2.28;2.00;;;;;;;;;;4963616;28;20129;-62
2022/06/28 06:47:41;;;;;;;2.30;2.17;;;;;;;;;;4966044;28;20059;-62
2022/06/28 06:50:08;;;;;;;2.38;2.13;;;;;;;;;;4963023;28;20469;-63
2022/06/28 06:52:34;;;;;;;1.83;1.73;;;;;;;;;;4961691;28;20039;-62
2022/06/28 06:54:59;;;;;;;2.22;2.03;;;;;;;;;;4962985;28;20049;-62
2022/06/28 06:57:24;;;;;;;2.40;2.22;;;;;;;;;;4965971;28;20031;-61
2022/06/28 06:59:50;;;;;;;2.35;2.25;;;;;;;;;;4964332;28;20038;-62
2022/06/28 07:02:15;;;;;;;3.67;2.13;;;;;;;;;;4962884;28;20038;-60
2022/06/28 07:04:40;;;;;;;2.53;2.10;;;;;;;;;;4964764;28;20529;-61
2022/06/28 07:07:05;;;;;;;2.03;1.92;;;;;;;;;;4964234;28;20473;-61
2022/06/28 07:09:30;;;;;;;1.95;1.85;;;;;;;;;;4963419;28;20528;-63
2022/06/28 07:11:56;;;;;;;3.17;2.60;;;;;;;;;;4960389;28;20066;-62
2022/06/28 07:14:21;;;;;;;2.30;2.08;;;;;;;;;;4961990;28;20066;-59
2022/06/28 07:16:46;;;;;;;4.18;3.00;;;;;;;;;;4962917;28;20149;-61
2022/06/28 07:19:13;;;;;;;3.20;2.90;;;;;;;;;;4963499;28;20126;-61
2022/06/28 07:21:39;;;;;;;3.75;2.38;;;;;;;;;;4962087;28;20038;-61
2022/06/28 07:24:05;;;;;;;2.47;2.35;;;;;;;;;;4963628;28;20031;-61
2022/06/28 07:26:31;;;;;;;2.58;2.40;;;;;;;;;;4965316;28;20528;-62
2022/06/28 07:28:56;;;;;;;3.35;2.75;;;;;;;;;;4962930;28;20062;-60
2022/06/28 07:31:21;;;;;;;2.13;2.03;;;;;;;;;;4960998;28;20066;-63
2022/06/28 07:33:46;;;;;;;2.90;2.38;;;;;;;;;;4961472;28;20106;-62
2022/06/28 07:36:12;;;;;;;2.60;2.40;;;;;;;;;;4959013;28;20403;-62
2022/06/28 07:38:37;;;;;;;2.30;2.20;;;;;;;;;;4962096;28;20066;-60
2022/06/28 07:41:02;;;;;;;2.97;2.22;;;;;;;;;;4963453;28;20050;-62
2022/06/28 07:43:27;;;;;;;2.92;2.65;;;;;;;;;;4962087;28;20069;-61
2022/06/28 07:45:53;;;;;;;3.00;2.45;;;;;;;;;;4961688;28;20627;-62
2022/06/28 07:48:19;;;;;;;2.70;2.50;;;;;;;;;;4961963;28;20042;-62
2022/06/28 07:53:28;;;;;;;2.38;2.28;;;;;;;;;;4965050;28;20038;-61
2022/06/28 07:55:54;;;;;;;2.53;2.33;;;;;;;;;;4962216;28;20034;-61
2022/06/28 07:58:19;;;;;;;2.45;2.25;;;;;;;;;;4962277;28;20066;-63
2022/06/28 08:00:44;;;;;;;2.10;1.90;;;;;;;;;;4961552;28;20033;-64
2022/06/28 08:03:09;;;;;;;2.10;2.00;;;;;;;;;;4962518;28;20117;-63
2022/06/28 08:05:35;;;;;;;2.85;2.50;;;;;;;;;;4960458;28;20061;-63
2022/06/28 08:08:00;;;;;;;2.72;2.30;;;;;;;;;;4961297;28;20110;-61
2022/06/28 08:10:25;;;;;;;2.00;1.90;;;;;;;;;;4962248;28;20035;-63
2022/06/28 08:12:50;;;;;;;3.75;2.53;;;;;;;;;;4964544;28;20081;-61
2022/06/28 08:15:16;;;;;;;2.85;2.65;;;;;;;;;;4962562;28;20031;-62
2022/06/28 08:17:41;;;;;;;2.70;2.47;;;;;;;;;;4961544;28;20133;-61
2022/06/28 08:20:06;;;;;;;3.10;2.80;;;;;;;;;;4962136;28;20031;-62
2022/06/28 08:22:32;;;;;;;2.53;2.20;;;;;;;;;;4963357;28;20062;-62
2022/06/28 08:24:57;;;;;;;2.97;2.75;;;;;;;;;;4963015;28;20075;-62
2022/06/28 08:27:22;;;;;;;4.15;2.28;;;;;;;;;;4961060;28;20461;-62
2022/06/28 08:29:48;;;;;;;2.45;2.17;;;;;;;;;;4962623;28;20031;-62
2022/06/28 08:32:13;;;;;;;2.38;2.22;;;;;;;;;;4978175;28;20400;-62
2022/06/28 08:34:39;;;;;;;3.65;2.70;;;;;;;;;;4962427;28;20781;-62
2022/06/28 08:37:05;;;;;;;3.25;2.97;;;;;;;;;;4958645;28;20038;-62
2022/06/28 08:39:30;;;;;;;2.97;2.78;;;;;;;;;;4961440;28;20054;-61
2022/06/28 08:41:58;;;;;;;2.97;2.65;;;;;;;;;;4963016;28;20117;-61
2022/06/28 08:44:24;;;;;;;4.03;3.08;;;;;;;;;;4961880;28;20022;-61
2022/06/28 08:46:53;;;;;;;2.75;2.55;;;;;;;;;;4960319;28;20401;-63
2022/06/28 08:49:25;;;;;;;2.67;2.47;;;;;;;;;;4961684;28;20038;-63
2022/06/28 08:51:54;;;;;;;2.88;2.67;;;;;;;;;;4962877;28;20038;-62
2022/06/28 08:54:21;;;;;;;2.47;2.30;;;;;;;;;;4960284;28;20118;-62
2022/06/28 08:56:47;;;;;;;5.55;3.38;;;;;;;;;;4960254;28;20137;-60
2022/06/28 08:59:13;;;;;;;2.78;2.65;;;;;;;;;;4961047;28;20503;-60
2022/06/28 09:01:38;;;;;;;2.80;2.60;;;;;;;;;;4963421;28;20027;-61
2022/06/28 09:04:06;;;;;;;2.78;2.58;;;;;;;;;;4960348;28;20054;-61
2022/06/28 09:06:32;;;;;;;3.38;2.47;;;;;;;;;;4959923;28;20042;-60
2022/06/28 09:08:57;;;;;;;2.78;2.45;;;;;;;;;;4959704;28;20082;-61
2022/06/28 09:11:22;;;;;;;3.40;2.55;;;;;;;;;;4961215;28;20062;-61
2022/06/28 09:13:48;;;;;;;3.38;2.97;;;;;;;;;;4959898;28;20050;-60
2022/06/28 09:16:13;;;;;;;3.00;2.80;;;;;;;;;;4959803;28;20030;-60
2022/06/28 09:18:39;;;;;;;2.60;2.40;;;;;;;;;;4974521;28;20077;-60
2022/06/28 09:21:05;;;;;;;4.75;2.70;;;;;;;;;;4959988;28;20521;-63
2022/06/28 09:23:32;;;;;;;2.83;2.35;;;;;;;;;;4958421;28;20058;-60
2022/06/28 09:26:02;;;;;;;2.67;2.47;;;;;;;;;;4957613;28;20038;-61
2022/06/28 09:28:28;;;;;;;3.75;2.90;;;;;;;;;;4974978;28;20545;-60
2022/06/28 09:31:15;;;;;;;2.95;2.72;;;;;;;;;;4961962;28;20030;-61
2022/06/28 09:33:44;;;;;;;3.35;2.97;;;;;;;;;;4959993;28;20085;-61
2022/06/28 09:36:13;;;;;;;2.65;2.45;;;;;;;;;;4958772;28;20671;-60
2022/06/28 09:38:39;;;;;;;3.85;3.40;;;;;;;;;;4960085;28;20062;-61
2022/06/28 09:41:04;;;;;;;3.33;3.13;;;;;;;;;;4960749;28;20533;-60
2022/06/28 09:43:34;;;;;;;6.40;3.15;;;;;;;;;;4960471;28;20521;-61
2022/06/28 09:46:02;;;;;;;3.08;2.63;;;;;;;;;;4959382;28;20054;-61
2022/06/28 09:48:31;;;;;;;2.85;2.67;;;;;;;;;;4960366;28;20045;-61
2022/06/28 09:50:57;;;;;;;3.25;3.08;;;;;;;;;;4961286;28;20019;-61
2022/06/28 09:53:24;;;;;;;3.42;2.78;;;;;;;;;;4964430;28;20027;-61
2022/06/28 09:55:51;;;;;;;3.25;3.05;;;;;;;;;;4963374;28;20026;-61
2022/06/28 09:58:17;;;;;;;3.22;2.97;;;;;;;;;;4963299;28;20027;-61
2022/06/28 10:00:43;;;;;;;3.45;2.97;;;;;;;;;;4964251;28;20484;-61
2022/06/28 10:03:08;;;;;;;3.13;2.92;;;;;;;;;;4963445;28;20552;-61
2022/06/28 10:05:34;;;;;;;3.55;3.20;;;;;;;;;;4962747;28;20077;-61
2022/06/28 10:07:59;;;;;;;3.55;3.25;;;;;;;;;;4963020;28;20092;-61
2022/06/28 10:10:24;;;;;;;3.70;3.08;;;;;;;;;;4962314;28;20031;-61
2022/06/28 10:15:36;;;;;;;2.70;2.60;;;;;;;;;;4963923;28;20132;-61
2022/06/28 10:18:08;;;;;;;2.55;2.45;;;;;;;;;;4962972;28;20034;-62
2022/06/28 10:20:35;;;;;;;3.70;3.40;;;;;;;;;;4963398;28;20034;-61
2022/06/28 10:23:21;;;;;;;5.35;3.17;;;;;;;;;;4963953;28;20050;-61
2022/06/28 10:26:02;;;;;;;3.58;3.38;;;;;;;;;;4962481;28;20402;-60
2022/06/28 10:28:28;;;;;;;3.42;3.22;;;;;;;;;;4962923;28;20034;-60
2022/06/28 10:31:12;;;;;;;3.38;3.17;;;;;;;;;;4964036;28;20027;-60
2022/06/28 10:33:41;;;;;;;3.63;3.30;;;;;;;;;;4965720;28;20489;-61
2022/06/28 10:36:13;;;;;;;4.65;3.35;;;;;;;;;;4962682;28;20085;-62
2022/06/28 10:38:58;;;;;;;3.80;3.60;;;;;;;;;;4963628;28;20061;-60
2022/06/28 10:41:34;;;;;;;3.70;3.50;;;;;;;;;;4965246;28;20640;-61
2022/06/28 10:44:07;;;;;;;3.95;3.75;;;;;;;;;;4962929;28;20584;-60
2022/06/28 10:46:32;;;;;;;3.47;3.28;;;;;;;;;;4962816;28;20047;-61
2022/06/28 10:49:02;;;;;;;3.50;3.30;;;;;;;;;;4963240;28;20477;-61
2022/06/28 10:51:29;;;;;;;4.35;3.92;;;;;;;;;;4965709;28;20103;-61
2022/06/28 10:53:54;;;;;;;3.83;3.53;;;;;;;;;;4980108;28;20035;-60
2022/06/28 10:56:20;;;;;;;3.83;3.53;;;;;;;;;;4962617;28;20768;-60
2022/06/28 10:59:03;;;;;;;6.65;6.05;;;;;;;;;;4961775;28;20291;-62
2022/06/28 11:01:42;;;;;;;4.38;4.18;;;;;;;;;;4963148;28;20339;-61
2022/06/28 11:04:09;;;;;;;4.47;4.13;;;;;;;;;;4962593;28;20117;-61
2022/06/28 11:06:41;;;;;;;4.00;3.35;;;;;;;;;;4962760;28;20073;-60
2022/06/28 11:09:30;;;;;;;4.18;3.95;;;;;;;;;;4963051;28;20484;-60
2022/06/28 11:12:11;;;;;;;3.90;3.70;;;;;;;;;;4912964;29;20493;-62
2022/06/28 11:14:54;;;;;;;3.50;3.28;;;;;;;;;;4909262;29;20035;-61
2022/06/28 11:17:20;;;;;;;4.32;4.03;;;;;;;;;;4909552;29;20075;-60
2022/06/28 11:19:53;;;;;;;4.30;3.95;;;;;;;;;;4912204;29;20205;-61
2022/06/28 11:22:28;;;;;;;4.20;3.85;;;;;;;;;;4897063;29;20036;-60
2022/06/28 11:24:54;;;;;;;4.13;3.75;;;;;;;;;;4910533;29;20039;-60
2022/06/28 11:27:22;;;;;;;3.72;3.42;;;;;;;;;;4909610;29;20024;-61
2022/06/28 11:29:52;;;;;;;5.32;4.90;;;;;;;;;;4911847;29;20047;-61
2022/06/28 11:32:18;;;;;;;4.10;3.80;;;;;;;;;;4912273;29;20044;-60
2022/06/28 11:34:43;;;;;;;4.65;4.35;;;;;;;;;;4909767;29;20040;-60
2022/06/28 11:37:08;;;;;;;4.47;4.18;;;;;;;;;;4909906;29;20063;-62
2022/06/28 11:39:34;;;;;;;4.38;4.07;;;;;;;;;;4911766;29;20043;-60
2022/06/28 11:41:59;;;;;;;4.18;3.97;;;;;;;;;;4902176;29;20036;-61
2022/06/28 11:44:25;;;;;;;4.10;3.80;;;;;;;;;;4908538;29;20179;-61
2022/06/28 11:46:51;;;;;;;5.03;3.95;;;;;;;;;;4910606;29;20063;-60
2022/06/28 11:49:26;;;;;;;4.40;4.20;;;;;;;;;;4943109;28;20053;-61
2022/06/28 11:51:51;;;;;;;4.25;4.05;;;;;;;;;;4963543;28;20042;-63
2022/06/28 11:54:18;;;;;;;5.15;4.43;;;;;;;;;;4961577;28;20035;-62
2022/06/28 11:56:44;;;;;;;5.68;3.80;;;;;;;;;;4960467;28;20125;-63
2022/06/28 11:59:10;;;;;;;4.10;3.90;;;;;;;;;;4962822;28;20513;-66
2022/06/28 12:01:39;;;;;;;4.75;4.35;;;;;;;;;;4961446;28;20038;-63
2022/06/28 12:04:06;;;;;;;3.75;3.55;;;;;;;;;;4960147;28;20030;-62
2022/06/28 12:06:33;;;;;;;4.57;4.18;;;;;;;;;;4960722;28;20469;-62
2022/06/28 12:08:58;;;;;;;4.07;3.75;;;;;;;;;;4960475;28;20174;-65
2022/06/28 12:11:32;;;;;;;4.32;4.00;;;;;;;;;;4960335;28;20026;-65
2022/06/28 12:13:58;;;;;;;;;;;;;;;;;;4959672;28;20018;-65
2022/06/28 12:16:23;;;;;;;5.22;4.30;;;;;;;;;;4961401;28;20386;-66
2022/06/28 12:18:52;;;;;;;4.55;4.25;;;;;;;;;;4960819;28;20058;-64
2022/06/28 12:21:18;;;;;;;4.53;3.80;;;;;;;;;;4959475;28;20031;-64
2022/06/28 12:23:48;;;;;;;4.53;4.20;;;;;;;;;;4959210;28;20226;-63
2022/06/28 12:26:16;;;;;;;4.18;3.78;;;;;;;;;;4959188;28;20340;-63
2022/06/28 12:28:41;;;;;;;5.38;3.75;;;;;;;;;;4959324;28;20038;-66
2022/06/28 12:31:06;;;;;;;5.50;4.20;;;;;;;;;;4959246;28;20034;-65
2022/06/28 12:33:32;;;;;;;4.15;3.85;;;;;;;;;;4960140;28;20050;-66
2022/06/28 12:35:57;;;;;;;4.32;4.03;;;;;;;;;;4958710;28;20113;-66
2022/06/28 12:38:23;;;;;;;4.68;4.38;;;;;;;;;;4959253;28;20054;-67
2022/06/28 12:40:48;;;;;;;4.35;3.97;;;;;;;;;;4959633;28;20165;-66
2022/06/28 12:43:13;;;;;;;9.77;4.50;;;;;;;;;;4961054;28;20146;-66
2022/06/28 12:45:39;;;;;;;4.80;4.40;;;;;;;;;;4959752;28;20031;-66
2022/06/28 12:48:04;;;;;;;4.57;4.28;;;;;;;;;;4960231;28;20026;-66
2022/06/28 12:50:30;;;;;;;4.18;3.88;;;;;;;;;;4960300;28;20218;-67
2022/06/28 12:52:57;;;;;;;4.88;4.57;;;;;;;;;;4958862;28;20031;-67
2022/06/28 12:55:22;;;;;;;4.55;4.18;;;;;;;;;;4959487;28;20035;-67
2022/06/28 12:57:48;;;;;;;5.50;5.10;;;;;;;;;;4960830;28;20018;-68
2022/06/28 13:00:14;;;;;;;5.82;4.75;;;;;;;;;;4960357;28;20452;-61
2022/06/28 13:02:39;;;;;;;5.60;5.10;;;;;;;;;;4958781;28;20070;-61
2022/06/28 13:05:05;;;;;;;5.32;5.03;;;;;;;;;;4972876;28;20591;-61
2022/06/28 13:07:30;;;;;;;5.07;4.57;;;;;;;;;;4957317;28;20026;-61
2022/06/28 13:09:55;;;;;;;5.35;4.95;;;;;;;;;;4956585;28;20703;-62
2022/06/28 13:12:21;;;;;;;4.13;3.70;;;;;;;;;;4955682;28;20027;-61
2022/06/28 13:14:46;;;;;;;5.60;5.10;;;;;;;;;;4955414;28;20139;-61
2022/06/28 13:17:11;;;;;;;5.05;4.72;;;;;;;;;;4958419;28;20043;-61
2022/06/28 13:19:36;;;;;;;5.28;4.57;;;;;;;;;;4959359;28;20085;-60
2022/06/28 13:22:02;;;;;;;4.88;4.63;;;;;;;;;;4959406;28;20031;-61
2022/06/28 13:24:27;;;;;;;5.25;4.50;;;;;;;;;;4960128;28;20772;-61
2022/06/28 13:26:52;;;;;;;5.50;5.05;;;;;;;;;;4966819;28;20027;-61
2022/06/28 13:29:18;;;;;;;4.97;4.50;;;;;;;;;;4965329;28;20069;-62
2022/06/28 13:31:44;;;;;;;4.70;4.32;;;;;;;;;;4963554;28;20031;-60
2022/06/28 13:34:10;;;;;;;4.75;4.38;;;;;;;;;;4964080;28;20054;-59
2022/06/28 13:36:35;;;;;;;4.60;4.35;;;;;;;;;;4962724;28;20118;-59
2022/06/28 13:39:00;;;;;;;5.10;4.55;;;;;;;;;;4962777;28;20070;-60
2022/06/28 13:41:27;;;;;;;5.00;4.47;;;;;;;;;;4963756;28;20436;-60
2022/06/28 13:43:52;;;;;;;7.20;4.68;;;;;;;;;;4961980;28;20026;-60
2022/06/28 13:46:17;;;;;;;5.25;4.53;;;;;;;;;;4962502;28;20027;-60
2022/06/28 13:48:43;;;;;;;4.43;4.13;;;;;;;;;;4965245;28;20568;-59
2022/06/28 13:51:08;;;;;;;5.28;4.10;;;;;;;;;;4963091;28;20034;-60
2022/06/28 13:53:38;;;;;;;4.90;4.50;;;;;;;;;;4964302;28;20121;-60
2022/06/28 13:56:04;;;;;;;4.55;4.25;;;;;;;;;;4965993;28;20042;-59
2022/06/28 13:58:30;;;;;;;3.60;3.10;;;;;;;;;;4963605;28;20034;-59
2022/06/28 14:00:59;;;;;;;4.32;3.80;;;;;;;;;;4963798;28;20085;-59
2022/06/28 14:03:25;;;;;;;4.65;4.25;;;;;;;;;;4964347;28;20026;-59
2022/06/28 14:05:51;;;;;;;4.65;3.83;;;;;;;;;;4966936;28;20417;-59
2022/06/28 14:08:16;;;;;;;4.70;4.40;;;;;;;;;;4964619;28;20063;-59
2022/06/28 14:10:41;;;;;;;6.70;3.67;;;;;;;;;;4963433;28;20077;-59
2022/06/28 14:13:06;;;;;;;4.72;4.25;;;;;;;;;;4964120;28;20262;-60
2022/06/28 14:15:32;;;;;;;4.50;3.83;;;;;;;;;;4964690;28;20050;-59
2022/06/28 14:17:58;;;;;;;4.63;4.22;;;;;;;;;;4964175;28;20031;-60
2022/06/28 14:20:23;;;;;;;4.97;4.35;;;;;;;;;;4963569;28;20393;-61
2022/06/28 14:22:50;;;;;;;5.20;4.78;;;;;;;;;;4963660;28;20453;-61
2022/06/28 14:25:15;;;;;;;5.05;4.65;;;;;;;;;;4966495;28;20038;-60
2022/06/28 14:27:41;;;;;;;4.75;4.45;;;;;;;;;;4963792;28;20027;-61
2022/06/28 14:30:07;;;;;;;5.45;5.13;;;;;;;;;;4963561;28;20035;-62
2022/06/28 14:32:33;;;;;;;4.60;4.30;;;;;;;;;;4962682;28;20707;-60
2022/06/28 14:34:58;;;;;;;10.20;3.83;;;;;;;;;;4965440;28;20397;-60
2022/06/28 14:37:24;;;;;;;5.18;4.60;;;;;;;;;;4962762;28;20413;-61
2022/06/28 14:39:50;;;;;;;5.10;3.70;;;;;;;;;;4962978;28;20031;-61
2022/06/28 14:42:15;;;;;;;4.30;4.03;;;;;;;;;;4962678;28;20042;-61
2022/06/28 14:44:40;;;;;;;5.30;3.78;;;;;;;;;;4964764;28;20046;-63
2022/06/28 14:47:05;;;;;;;4.95;4.57;;;;;;;;;;4962859;28;20070;-62
2022/06/28 14:49:31;;;;;;;4.63;4.32;;;;;;;;;;4963372;28;20037;-62